Time;durP1;ratioP1;P1;durP2;ratioP2;P2;SDS_P1;SDS_P2;PMS_P1;PMS_P2;Temp;Humidity;BMP_temperature;BMP_pressure;BME280_temperature;BME280_humidity;BME280_pressure;Samples;Min_cycle;Max_cycle;Signal;HPM_P1;HPM_P2
2022/10/13 00:00:26;;;;;;;32.50;15.30;;;;;;;10.54;100.00;101059.78;8387579;28;20394;-49
2022/10/13 00:04:27;;;;;;;35.58;17.23;;;;;;;10.51;100.00;101059.16;8394132;27;20036;-52
2022/10/13 00:08:29;;;;;;;30.75;14.93;;;;;;;10.59;100.00;101062.97;8364893;28;20037;-48
2022/10/13 00:12:33;;;;;;;31.90;15.65;;;;;;;10.59;100.00;101054.88;8362304;28;20037;-48
2022/10/13 00:16:33;;;;;;;29.92;14.82;;;;;;;10.64;100.00;101054.50;8355169;28;20048;-49
2022/10/13 00:20:35;;;;;;;33.80;15.27;;;;;;;10.64;100.00;101047.22;8360459;28;20132;-51
2022/10/13 00:24:36;;;;;;;29.48;15.23;;;;;;;10.59;100.00;101044.06;8358734;28;20383;-49
2022/10/13 00:28:37;;;;;;;30.15;15.00;;;;;;;10.42;100.00;101044.59;8344550;28;20124;-49
2022/10/13 00:32:38;;;;;;;29.73;15.82;;;;;;;10.42;100.00;101050.00;8295531;28;20045;-49
2022/10/13 00:36:39;;;;;;;31.60;15.38;;;;;;;10.37;100.00;101044.09;8384065;28;20029;-48
2022/10/13 00:40:43;;;;;;;31.33;15.27;;;;;;;10.40;100.00;101038.44;8346026;28;20520;-49
2022/10/13 00:45:06;;;;;;;39.78;16.33;;;;;;;10.43;100.00;101042.75;8348126;28;20057;-49
2022/10/13 00:49:12;;;;;;;31.88;15.77;;;;;;;10.47;100.00;101046.91;8360770;28;20506;-53
2022/10/13 00:53:20;;;;;;;42.67;16.88;;;;;;;10.37;100.00;101033.28;8361057;28;20045;-49
2022/10/13 00:57:22;;;;;;;34.88;17.20;;;;;;;10.41;100.00;101028.50;8361107;28;20040;-49
2022/10/13 01:01:22;;;;;;;39.00;17.42;;;;;;;10.43;100.00;101021.13;8392280;28;20036;-49
2022/10/13 01:05:24;;;;;;;36.13;16.73;;;;;;;10.51;100.00;101024.03;8384019;28;20094;-48
2022/10/13 01:09:36;;;;;;;33.53;17.20;;;;;;;10.50;100.00;101020.50;8364651;28;20410;-51
2022/10/13 01:18:18;;;;;;;42.58;18.63;;;;;;;10.49;100.00;101005.22;8395273;27;20824;-48
2022/10/13 01:27:18;;;;;;;37.20;17.60;;;;;;;10.59;100.00;100995.38;8391244;27;20481;-47
2022/10/13 01:31:36;;;;;;;38.78;17.00;;;;;;;10.52;100.00;100991.47;8382146;28;20036;-47
2022/10/13 01:35:46;;;;;;;43.17;18.23;;;;;;;10.53;100.00;100993.19;8385239;28;20383;-48
2022/10/13 01:39:55;;;;;;;38.67;17.20;;;;;;;10.53;100.00;100984.22;8385384;28;20033;-49
2022/10/13 01:44:26;;;;;;;33.67;16.95;;;;;;;10.58;100.00;100984.69;8385209;28;20457;-50
2022/10/13 01:48:27;;;;;;;35.88;17.80;;;;;;;10.49;100.00;100977.38;8383894;28;20040;-49
2022/10/13 01:52:34;;;;;;;41.15;18.70;;;;;;;10.52;100.00;100975.25;8383915;28;20452;-49
2022/10/13 01:56:34;;;;;;;39.55;16.90;;;;;;;10.58;100.00;100969.31;8414945;28;20111;-48
2022/10/13 02:00:42;;;;;;;34.15;16.42;;;;;;;10.61;100.00;100971.75;8418728;28;20036;-48
2022/10/13 02:05:11;;;;;;;31.77;16.17;;;;;;;10.64;100.00;100967.97;8407078;28;20178;-51
2022/10/13 02:09:24;;;;;;;41.05;17.00;;;;;;;10.60;100.00;100961.94;8414077;28;20045;-47
2022/10/13 02:13:28;;;;;;;34.60;17.13;;;;;;;10.48;100.00;100960.28;8416545;28;20032;-49
2022/10/13 02:17:30;;;;;;;36.67;17.08;;;;;;;10.55;100.00;100956.06;8416137;28;20107;-49
2022/10/13 02:21:32;;;;;;;39.15;17.48;;;;;;;10.62;100.00;100956.41;8418015;28;20067;-49
2022/10/13 02:25:36;;;;;;;35.80;15.95;;;;;;;10.64;100.00;100949.03;8409501;28;20048;-47
2022/10/13 02:29:49;;;;;;;31.98;16.42;;;;;;;10.65;100.00;100946.19;8416008;28;20413;-47
2022/10/13 02:33:50;;;;;;;33.25;15.77;;;;;;;10.72;100.00;100952.78;8382126;28;20032;-47
2022/10/13 02:37:51;;;;;;;35.83;16.80;;;;;;;10.69;100.00;100963.88;8396423;28;20044;-48
2022/10/13 02:41:51;;;;;;;35.28;16.25;;;;;;;10.70;100.00;100949.34;8393709;28;20059;-52
2022/10/13 02:45:52;;;;;;;35.65;16.13;;;;;;;10.66;100.00;100958.72;8394401;28;20383;-48
2022/10/13 02:49:52;;;;;;;34.33;15.90;;;;;;;10.72;100.00;100963.59;8392763;28;20051;-48
2022/10/13 02:53:53;;;;;;;32.22;15.43;;;;;;;10.61;100.00;100966.34;8393522;28;20048;-48
2022/10/13 02:57:54;;;;;;;32.88;16.40;;;;;;;10.54;100.00;100958.88;8414835;28;20531;-50
2022/10/13 03:01:55;;;;;;;34.22;16.23;;;;;;;10.50;100.00;100954.75;8396593;28;20033;-50
2022/10/13 03:05:56;;;;;;;38.70;16.40;;;;;;;10.55;100.00;100949.81;8392254;28;20040;-49
2022/10/13 03:09:57;;;;;;;31.83;16.30;;;;;;;10.61;100.00;100952.84;8394308;28;20036;-50
2022/10/13 03:13:58;;;;;;;32.80;15.68;;;;;;;10.63;100.00;100947.28;8393118;28;20131;-52
2022/10/13 03:17:58;;;;;;;34.33;15.60;;;;;;;10.63;100.00;100926.53;8391873;28;20310;-52
2022/10/13 03:21:59;;;;;;;34.65;16.40;;;;;;;10.67;100.00;100921.75;8392585;28;20037;-50
2022/10/13 03:26:00;;;;;;;36.40;16.33;;;;;;;10.65;100.00;100913.75;8393110;28;20055;-51
2022/10/13 03:30:01;;;;;;;33.28;15.02;;;;;;;10.63;100.00;100913.00;8387328;28;20402;-53
2022/10/13 03:34:02;;;;;;;34.40;15.77;;;;;;;10.64;100.00;100906.59;8392279;28;20064;-54
2022/10/13 03:38:02;;;;;;;30.05;15.23;;;;;;;10.71;100.00;100902.41;8393237;28;20055;-53
2022/10/13 03:42:03;;;;;;;37.17;15.38;;;;;;;10.81;100.00;100908.72;8393011;28;20044;-52
2022/10/13 03:46:05;;;;;;;33.42;14.55;;;;;;;10.92;100.00;100907.81;8392080;28;20044;-50
2022/10/13 03:50:06;;;;;;;30.45;14.00;;;;;;;10.97;100.00;100909.09;8392401;28;20444;-51
2022/10/13 03:54:11;;;;;;;34.60;14.50;;;;;;;10.97;100.00;100902.81;8392870;28;20501;-54
2022/10/13 03:58:12;;;;;;;33.40;14.60;;;;;;;11.09;100.00;100904.47;8385548;28;20139;-51
2022/10/13 04:02:16;;;;;;;28.38;14.07;;;;;;;11.21;100.00;100906.09;8388024;28;20391;-53
2022/10/13 04:06:17;;;;;;;27.20;13.13;;;;;;;11.26;100.00;100906.56;8389171;28;20045;-53
2022/10/13 04:10:17;;;;;;;30.92;14.15;;;;;;;11.31;100.00;100896.16;8378249;28;20071;-53
2022/10/13 04:14:19;;;;;;;28.85;13.57;;;;;;;11.35;100.00;100895.75;8377462;28;20033;-53
2022/10/13 04:18:20;;;;;;;26.60;13.25;;;;;;;11.37;100.00;100885.66;8386208;28;20509;-51
2022/10/13 04:22:21;;;;;;;25.05;12.48;;;;;;;11.32;100.00;100887.91;8387351;28;20041;-51
2022/10/13 04:26:23;;;;;;;21.08;11.95;;;;;;;11.39;100.00;100893.66;8386539;28;20182;-51
2022/10/13 04:30:25;;;;;;;22.38;13.02;;;;;;;11.43;100.00;100893.22;8387693;28;20071;-52
2022/10/13 04:34:26;;;;;;;27.98;12.85;;;;;;;11.48;100.00;100890.97;8387796;28;20036;-53
2022/10/13 04:38:27;;;;;;;25.05;12.27;;;;;;;11.54;100.00;100886.84;8387827;28;20078;-50
2022/10/13 04:42:28;;;;;;;18.98;11.52;;;;;;;11.65;100.00;100882.22;8385571;28;20115;-54
2022/10/13 04:46:29;;;;;;;21.25;12.00;;;;;;;11.62;100.00;100890.63;8387416;28;20517;-52
2022/10/13 04:50:30;;;;;;;25.70;11.80;;;;;;;11.66;100.00;100875.81;8387681;28;20050;-53
2022/10/13 04:54:34;;;;;;;27.60;11.45;;;;;;;11.62;100.00;100874.38;8384953;28;20046;-53
2022/10/13 04:58:36;;;;;;;27.63;12.57;;;;;;;11.61;100.00;100880.75;8386266;28;20037;-53
2022/10/13 05:02:37;;;;;;;50.85;21.33;;;;;;;11.64;100.00;100877.81;8386374;28;20248;-51
2022/10/13 05:06:40;;;;;;;28.48;13.52;;;;;;;11.64;100.00;100882.34;8386971;28;20040;-51
2022/10/13 05:10:41;;;;;;;29.50;14.10;;;;;;;11.58;100.00;100872.91;8378435;28;20127;-51
2022/10/13 05:14:42;;;;;;;24.45;11.80;;;;;;;11.62;100.00;100851.88;8379482;28;20460;-51
2022/10/13 05:18:43;;;;;;;26.33;11.93;;;;;;;11.58;100.00;100861.22;8383253;28;20046;-54
2022/10/13 05:22:43;;;;;;;23.67;11.18;;;;;;;11.52;100.00;100850.94;8384671;28;20058;-51
2022/10/13 05:26:44;;;;;;;20.38;11.93;;;;;;;11.46;100.00;100859.59;8382175;28;20037;-52
2022/10/13 05:30:45;;;;;;;23.85;12.80;;;;;;;11.52;100.00;100854.50;8382384;28;20358;-51
2022/10/13 05:34:48;;;;;;;30.38;12.52;;;;;;;11.56;100.00;100853.22;8385200;28;20033;-51
2022/10/13 05:38:51;;;;;;;27.30;13.32;;;;;;;11.65;100.00;100841.59;8385258;28;20432;-51
2022/10/13 05:42:52;;;;;;;23.52;12.27;;;;;;;11.68;100.00;100846.72;8383996;28;20649;-51
2022/10/13 05:46:53;;;;;;;26.27;12.43;;;;;;;11.65;100.00;100849.72;8385176;28;20036;-50
2022/10/13 05:50:56;;;;;;;24.75;12.50;;;;;;;11.62;100.00;100841.88;8375722;28;20106;-54
2022/10/13 05:55:01;;;;;;;26.25;12.75;;;;;;;11.59;100.00;100838.56;8381698;28;20050;-51
2022/10/13 05:59:05;;;;;;;28.73;11.80;;;;;;;11.61;100.00;100833.84;8363188;28;20079;-50
2022/10/13 06:03:11;;;;;;;24.98;12.73;;;;;;;11.69;100.00;100843.00;8348107;28;20051;-50
2022/10/13 06:07:16;;;;;;;26.13;13.80;;;;;;;11.62;100.00;100832.91;8345958;28;20124;-52
2022/10/13 06:11:16;;;;;;;24.38;12.85;;;;;;;11.68;100.00;100830.47;8356025;28;20037;-50
2022/10/13 06:15:17;;;;;;;27.95;13.23;;;;;;;11.71;100.00;100829.34;8359067;28;20060;-50
2022/10/13 06:19:17;;;;;;;24.58;13.23;;;;;;;11.73;100.00;100825.50;8358596;28;20450;-51
2022/10/13 06:23:18;;;;;;;32.17;13.50;;;;;;;11.73;100.00;100828.22;8358377;28;20090;-52
2022/10/13 06:27:19;;;;;;;32.55;14.98;;;;;;;11.69;100.00;100831.34;8356179;28;20037;-50
2022/10/13 06:31:20;;;;;;;29.83;14.05;;;;;;;11.74;100.00;100827.22;8358942;28;20697;-54
2022/10/13 06:35:22;;;;;;;24.48;13.20;;;;;;;11.82;100.00;100832.78;8359786;28;20148;-50
2022/10/13 06:39:22;;;;;;;30.20;14.73;;;;;;;11.86;100.00;100839.63;8355508;28;20037;-53
2022/10/13 06:43:23;;;;;;;32.33;14.25;;;;;;;11.90;100.00;100837.50;8353340;28;20037;-51
2022/10/13 06:47:24;;;;;;;26.92;14.20;;;;;;;11.98;100.00;100834.94;8357584;28;20621;-50
2022/10/13 06:51:25;;;;;;;31.33;13.38;;;;;;;12.07;100.00;100830.53;8355924;28;20545;-51
2022/10/13 06:55:26;;;;;;;27.10;14.18;;;;;;;12.15;100.00;100834.22;8356356;28;20098;-53
2022/10/13 06:59:26;;;;;;;32.17;13.88;;;;;;;12.27;100.00;100838.50;8350844;28;20127;-51
2022/10/13 07:03:27;;;;;;;30.70;14.50;;;;;;;12.41;100.00;100837.22;8353144;28;20072;-51
2022/10/13 07:07:28;;;;;;;29.20;13.57;;;;;;;12.55;100.00;100834.03;8352741;28;20044;-52
2022/10/13 07:11:29;;;;;;;28.52;13.88;;;;;;;12.65;100.00;100832.16;8355972;28;20029;-51
2022/10/13 07:15:33;;;;;;;29.70;14.52;;;;;;;12.83;100.00;100831.28;8347532;28;20037;-54
2022/10/13 07:19:33;;;;;;;30.63;13.02;;;;;;;13.01;100.00;100828.66;8349734;28;20036;-51
2022/10/13 07:23:34;;;;;;;30.30;14.18;;;;;;;13.13;100.00;100835.63;8356761;28;20033;-53
2022/10/13 07:27:36;;;;;;;29.45;14.65;;;;;;;13.23;100.00;100831.84;8354146;28;20033;-53
2022/10/13 07:31:37;;;;;;;34.35;18.42;;;;;;;13.28;100.00;100820.56;8353927;28;20048;-53
2022/10/13 07:35:38;;;;;;;26.98;14.65;;;;;;;13.41;100.00;100811.03;8381194;28;20528;-53
2022/10/13 07:39:39;;;;;;;28.60;13.57;;;;;;;13.70;100.00;100819.03;8378164;28;20060;-52
2022/10/13 07:43:40;;;;;;;34.00;17.85;;;;;;;13.99;100.00;100811.50;8384319;28;20048;-51
2022/10/13 07:47:40;;;;;;;72.00;28.02;;;;;;;14.17;100.00;100825.94;8384581;28;20039;-50
2022/10/13 07:51:42;;;;;;;52.67;23.45;;;;;;;14.15;100.00;100825.25;8387124;28;20417;-50
2022/10/13 07:55:43;;;;;;;39.60;18.15;;;;;;;14.26;100.00;100825.03;8386048;28;20490;-51
2022/10/13 07:59:44;;;;;;;22.90;13.07;;;;;;;14.30;100.00;100823.72;8385757;28;20454;-51
2022/10/13 08:03:46;;;;;;;21.60;12.00;;;;;;;14.56;100.00;100830.06;8377549;28;20040;-51
2022/10/13 08:07:49;;;;;;;35.60;12.82;;;;;;;15.02;100.00;100832.41;8381581;28;20513;-51
2022/10/13 08:11:50;;;;;;;27.30;11.82;;;;;;;15.60;100.00;100836.13;8387931;28;20048;-51
2022/10/13 08:15:51;;;;;;;22.40;11.68;;;;;;;15.97;97.85;100832.13;8388693;28;20541;-54
2022/10/13 08:19:52;;;;;;;20.10;10.38;;;;;;;16.04;97.15;100827.72;8388186;28;20553;-55
2022/10/13 08:23:53;;;;;;;15.73;10.30;;;;;;;16.06;97.53;100825.66;8379725;28;20094;-52
2022/10/13 08:27:53;;;;;;;22.45;9.38;;;;;;;16.20;96.66;100822.28;8387857;28;20033;-54
2022/10/13 08:31:54;;;;;;;18.48;8.70;;;;;;;16.21;94.16;100818.53;8385338;28;20143;-55
2022/10/13 08:35:55;;;;;;;16.67;8.15;;;;;;;16.36;90.92;100811.38;8387008;28;20051;-54
2022/10/13 08:40:00;;;;;;;17.08;8.73;;;;;;;16.45;89.36;100813.13;8384702;28;20578;-52
2022/10/13 08:44:05;;;;;;;14.10;7.60;;;;;;;16.46;89.21;100817.53;8385514;28;20452;-55
2022/10/13 08:48:14;;;;;;;20.38;8.50;;;;;;;16.58;89.25;100813.44;8385365;28;20036;-52
2022/10/13 08:52:20;;;;;;;18.63;8.07;;;;;;;16.95;86.79;100814.59;8384903;28;20066;-52
2022/10/13 08:56:26;;;;;;;14.40;7.45;;;;;;;17.52;84.95;100818.00;8386310;28;20090;-54
2022/10/13 09:00:29;;;;;;;18.67;7.20;;;;;;;19.26;78.13;100818.69;8383328;28;20397;-52
2022/10/13 09:04:36;;;;;;;13.45;6.35;;;;;;;19.55;73.99;100816.97;8383615;28;20037;-51
2022/10/13 09:08:43;;;;;;;18.67;7.70;;;;;;;18.49;77.17;100813.66;8381111;28;20041;-55
2022/10/13 09:12:43;;;;;;;14.95;6.82;;;;;;;18.14;78.82;100802.44;8374368;28;20033;-54
2022/10/13 09:16:45;;;;;;;16.00;7.38;;;;;;;18.07;79.42;100807.78;8380862;28;20513;-55
2022/10/13 09:20:45;;;;;;;16.20;7.45;;;;;;;18.05;79.48;100798.88;8378993;28;20085;-55
2022/10/13 09:24:46;;;;;;;12.68;6.40;;;;;;;18.29;79.35;100801.44;8378817;28;20040;-54
2022/10/13 09:28:47;;;;;;;12.70;6.28;;;;;;;18.46;78.20;100797.59;8383885;28;20034;-55
2022/10/13 09:32:48;;;;;;;10.45;6.47;;;;;;;18.63;77.29;100796.38;8360951;28;20151;-52
2022/10/13 09:36:59;;;;;;;11.75;7.15;;;;;;;19.07;77.49;100797.31;8317998;28;20041;-51
2022/10/13 09:45:15;;;;;;;13.25;6.32;;;;;;;20.72;69.73;100799.91;8321115;27;20770;-54
2022/10/13 09:49:42;;;;;;;16.13;6.07;;;;;;;20.19;71.32;100789.47;8314493;28;20431;-50
2022/10/13 09:53:46;;;;;;;15.50;6.57;;;;;;;20.20;71.95;100787.56;8305085;28;20185;-53
2022/10/13 09:57:50;;;;;;;18.42;7.22;;;;;;;20.19;72.95;100788.63;8302421;28;20392;-51
2022/10/13 10:01:53;;;;;;;17.23;7.28;;;;;;;19.72;71.82;100777.28;8305764;28;20438;-52
2022/10/13 10:05:58;;;;;;;20.67;6.72;;;;;;;19.82;71.25;100780.59;8345035;28;20120;-53
2022/10/13 10:10:04;;;;;;;18.73;6.70;;;;;;;20.57;70.14;100770.81;8345369;28;20120;-50
2022/10/13 10:14:25;;;;;;;12.52;5.65;;;;;;;21.35;67.97;100766.72;8345163;28;20601;-53
2022/10/13 10:18:35;;;;;;;10.50;5.82;;;;;;;22.17;64.67;100761.91;8345507;28;20511;-53
2022/10/13 10:22:46;;;;;;;13.25;6.13;;;;;;;21.83;65.07;100759.31;8339274;28;20407;-53
2022/10/13 10:31:18;;;;;;;14.98;6.60;;;;;;;20.10;70.45;100757.66;8285947;27;20385;-53
2022/10/13 10:35:58;;;;;;;14.65;7.07;;;;;;;20.13;70.25;100745.50;8310899;28;20064;-54
2022/10/13 10:40:38;;;;;;;11.93;5.75;;;;;;;20.33;69.74;100746.50;8277602;28;20687;-52
2022/10/13 10:44:43;;;;;;;14.95;6.82;;;;;;;20.26;69.33;100751.09;8295022;28;20034;-52
2022/10/13 10:48:46;;;;;;;10.30;6.18;;;;;;;19.70;71.02;100733.59;8310371;28;20485;-51
2022/10/13 10:53:10;;;;;;;16.80;6.60;;;;;;;19.41;74.14;100745.50;8312015;28;20036;-53
2022/10/13 10:57:24;;;;;;;11.97;5.33;;;;;;;19.12;74.40;100742.75;8313121;28;20044;-53
2022/10/13 11:01:33;;;;;;;10.18;5.97;;;;;;;18.87;76.32;100743.22;8304747;28;20037;-49
2022/10/13 11:06:13;;;;;;;16.52;6.63;;;;;;;18.71;76.22;100740.66;8289537;28;20046;-50
2022/10/13 11:14:29;;;;;;;22.10;7.85;;;;;;;18.33;81.88;100747.19;8390455;27;20119;-50
2022/10/13 11:19:04;;;;;;;10.07;7.15;;;;;;;17.98;85.35;100743.19;8378420;28;20120;-51
2022/10/13 11:23:10;;;;;;;16.10;7.22;;;;;;;17.93;87.52;100745.63;8374561;28;20094;-50
2022/10/13 11:27:22;;;;;;;18.20;7.78;;;;;;;17.62;87.87;100725.66;8379759;28;20037;-50
2022/10/13 11:31:27;;;;;;;16.60;7.47;;;;;;;17.49;88.47;100729.00;8403499;28;20048;-51
2022/10/13 11:35:29;;;;;;;18.08;8.70;;;;;;;17.43;89.08;100731.59;8378549;28;20036;-50
2022/10/13 11:39:46;;;;;;;23.25;8.40;;;;;;;17.45;90.20;100713.16;8379140;28;20052;-50
2022/10/13 11:44:15;;;;;;;13.30;6.40;;;;;;;17.59;90.77;100710.47;8379048;28;20048;-51
2022/10/13 11:53:12;;;;;;;10.93;6.18;;;;;;;18.38;85.61;100699.06;8388484;27;20493;-50
2022/10/13 11:57:21;;;;;;;12.15;6.22;;;;;;;18.35;86.69;100706.78;8375376;28;20033;-50
2022/10/13 12:01:22;;;;;;;11.75;5.80;;;;;;;18.13;84.87;100699.47;8404325;28;20067;-51
2022/10/13 12:05:27;;;;;;;11.70;5.60;;;;;;;17.99;87.67;100690.16;8392415;28;20032;-51
2022/10/13 12:09:28;;;;;;;;;;;;;;;17.94;88.23;100692.63;8410881;28;20040;-50
2022/10/13 12:13:31;;;;;;;13.02;5.72;;;;;;;17.89;89.26;100695.03;8407929;28;19930;-52
2022/10/13 12:17:37;;;;;;;13.10;5.72;;;;;;;17.89;88.70;100678.63;8409828;28;20044;-50
2022/10/13 12:21:50;;;;;;;12.90;6.32;;;;;;;17.94;89.05;100681.69;8397420;28;20036;-51
2022/10/13 12:25:57;;;;;;;11.18;6.13;;;;;;;18.05;90.28;100675.75;8373396;28;20174;-51
2022/10/13 12:29:59;;;;;;;10.75;5.95;;;;;;;18.18;87.88;100677.88;8377506;28;20033;-52
2022/10/13 12:34:01;;;;;;;10.88;6.35;;;;;;;18.00;87.05;100669.13;8375387;28;20043;-51
2022/10/13 12:38:06;;;;;;;13.65;6.80;;;;;;;17.93;88.30;100662.72;8377930;28;20067;-53
2022/10/13 12:42:11;;;;;;;12.20;6.22;;;;;;;17.98;88.52;100663.84;8344975;28;20215;-50
2022/10/13 12:46:51;;;;;;;16.30;8.43;;;;;;;18.19;88.77;100661.25;8383216;28;20580;-54
2022/10/13 12:50:51;;;;;;;15.45;8.32;;;;;;;18.21;88.06;100650.97;8367874;28;20072;-50
2022/10/13 12:54:54;;;;;;;13.32;7.28;;;;;;;18.21;86.87;100656.44;8368758;28;20052;-51
2022/10/13 12:58:56;;;;;;;18.45;8.50;;;;;;;18.15;85.33;100659.94;8375654;28;20044;-53
2022/10/13 13:03:00;;;;;;;15.32;8.30;;;;;;;18.22;86.70;100658.16;8357788;28;20884;-50
2022/10/13 13:07:03;;;;;;;17.60;8.05;;;;;;;18.21;84.87;100659.16;8353641;28;20036;-52
2022/10/13 13:11:06;;;;;;;14.98;8.90;;;;;;;18.09;86.84;100657.94;8351292;28;20513;-50
2022/10/13 13:15:32;;;;;;;19.05;7.90;;;;;;;17.94;87.39;100653.47;8344014;28;20043;-53
2022/10/13 13:19:34;;;;;;;15.80;6.03;;;;;;;17.85;86.79;100658.16;8354352;28;20119;-50
2022/10/13 13:23:35;;;;;;;14.35;6.25;;;;;;;17.80;87.41;100657.84;8353312;28;20576;-50
2022/10/13 13:27:38;;;;;;;9.93;4.97;;;;;;;17.77;86.21;100647.28;8353141;28;20044;-52
2022/10/13 13:31:39;;;;;;;10.50;5.57;;;;;;;17.75;86.86;100654.81;8353808;28;20036;-51
2022/10/13 13:35:40;;;;;;;13.38;5.90;;;;;;;17.63;89.94;100649.97;8350770;28;20068;-51
2022/10/13 13:39:40;;;;;;;13.45;6.22;;;;;;;17.45;93.25;100644.81;8348933;28;20029;-50
2022/10/13 13:43:41;;;;;;;12.43;5.78;;;;;;;17.25;94.27;100646.25;8347735;28;20029;-53
2022/10/13 13:47:42;;;;;;;9.80;6.05;;;;;;;17.13;97.84;100653.16;8350584;28;20406;-50
2022/10/13 13:51:42;;;;;;;12.95;6.13;;;;;;;17.00;97.79;100647.44;8353348;28;20037;-53
2022/10/13 13:55:45;;;;;;;12.32;6.35;;;;;;;16.92;98.91;100636.53;8352246;28;20176;-51
2022/10/13 13:59:49;;;;;;;13.75;6.93;;;;;;;16.85;100.00;100633.69;8346628;28;20091;-50
2022/10/13 14:03:50;;;;;;;18.08;10.07;;;;;;;16.75;100.00;100632.19;8352470;28;20040;-50
2022/10/13 14:07:54;;;;;;;25.60;12.77;;;;;;;16.70;100.00;100618.22;8354011;28;20071;-49
2022/10/13 14:11:55;;;;;;;22.90;13.95;;;;;;;16.67;100.00;100621.28;8352610;28;20045;-50
2022/10/13 14:15:57;;;;;;;31.65;16.13;;;;;;;16.58;100.00;100622.34;8351971;28;20196;-50
2022/10/13 14:19:58;;;;;;;30.00;16.13;;;;;;;16.51;100.00;100618.63;8346585;28;20052;-49
2022/10/13 14:23:58;;;;;;;32.72;17.20;;;;;;;16.49;100.00;100609.75;8351432;28;20037;-53
2022/10/13 14:27:59;;;;;;;32.50;15.75;;;;;;;16.48;100.00;100608.94;8351709;28;20041;-50
2022/10/13 14:32:00;;;;;;;30.35;15.20;;;;;;;16.44;100.00;100609.47;8365500;28;20032;-50
2022/10/13 14:36:03;;;;;;;30.27;15.85;;;;;;;16.49;100.00;100598.84;8362425;28;20706;-52
2022/10/13 14:40:04;;;;;;;39.28;16.55;;;;;;;16.53;100.00;100601.03;8352944;28;20056;-50
2022/10/13 14:44:06;;;;;;;31.20;15.90;;;;;;;16.55;100.00;100609.06;8352193;28;20044;-53
2022/10/13 14:48:06;;;;;;;33.70;16.20;;;;;;;16.60;100.00;100601.19;8352097;28;20068;-51
2022/10/13 14:52:08;;;;;;;30.63;16.10;;;;;;;16.59;100.00;100604.97;8347547;28;20041;-50
2022/10/13 14:56:18;;;;;;;29.20;17.17;;;;;;;16.58;100.00;100589.59;8346244;28;20072;-51
2022/10/13 15:00:23;;;;;;;34.03;17.53;;;;;;;16.62;100.00;100594.53;8351764;28;20376;-51
2022/10/13 15:04:23;;;;;;;31.58;17.30;;;;;;;16.62;100.00;100599.16;8351661;28;20288;-52
2022/10/13 15:08:24;;;;;;;27.42;16.38;;;;;;;16.62;100.00;100585.50;8344624;28;20152;-50
2022/10/13 15:12:25;;;;;;;37.22;17.02;;;;;;;16.58;100.00;100581.41;8350593;28;20037;-50
2022/10/13 15:16:28;;;;;;;31.67;17.02;;;;;;;16.53;100.00;100581.94;8350032;28;20048;-54
2022/10/13 15:20:28;;;;;;;33.13;18.45;;;;;;;16.50;100.00;100581.47;8347382;28;20048;-50
2022/10/13 15:24:29;;;;;;;27.60;17.42;;;;;;;16.43;100.00;100572.22;8346463;28;20128;-52
2022/10/13 15:28:38;;;;;;;30.10;17.85;;;;;;;16.38;100.00;100577.38;8346468;28;20033;-50
2022/10/13 15:32:39;;;;;;;33.13;17.63;;;;;;;16.35;100.00;100569.53;8344558;28;20049;-53
2022/10/13 15:36:39;;;;;;;31.08;17.23;;;;;;;16.32;100.00;100569.91;8347155;28;20501;-52
2022/10/13 15:40:41;;;;;;;37.78;19.10;;;;;;;16.29;100.00;100570.25;8344569;28;20036;-50
2022/10/13 15:44:41;;;;;;;35.58;17.75;;;;;;;16.26;100.00;100566.00;8348549;28;20048;-51
2022/10/13 15:48:42;;;;;;;32.53;18.13;;;;;;;16.28;100.00;100579.47;8345854;28;20655;-52
2022/10/13 15:52:43;;;;;;;36.42;17.15;;;;;;;16.32;100.00;100584.41;8343595;28;20041;-51
2022/10/13 15:56:44;;;;;;;36.30;17.55;;;;;;;16.18;100.00;100589.72;8339380;28;20041;-53
2022/10/13 16:00:45;;;;;;;32.78;19.20;;;;;;;16.08;100.00;100579.00;8338141;28;20040;-52
2022/10/13 16:04:45;;;;;;;30.90;17.00;;;;;;;16.05;100.00;100573.03;8342736;28;20052;-51
2022/10/13 16:08:47;;;;;;;26.55;13.45;;;;;;;15.95;100.00;100567.78;8348769;28;20037;-53
2022/10/13 16:12:48;;;;;;;24.70;13.32;;;;;;;15.99;100.00;100557.38;8350189;28;20037;-52
2022/10/13 16:16:49;;;;;;;25.67;13.35;;;;;;;16.00;100.00;100559.06;8339182;28;20063;-50
2022/10/13 16:20:50;;;;;;;29.80;14.43;;;;;;;16.04;100.00;100549.53;8345456;28;20045;-51
2022/10/13 16:24:51;;;;;;;22.13;12.63;;;;;;;16.04;100.00;100555.00;8346017;28;20529;-52
2022/10/13 16:28:55;;;;;;;23.63;13.52;;;;;;;16.08;100.00;100561.78;8342220;28;20387;-54
2022/10/13 16:32:57;;;;;;;22.10;13.55;;;;;;;16.12;100.00;100546.75;8350192;28;20098;-51
2022/10/13 16:36:58;;;;;;;26.13;15.02;;;;;;;16.11;100.00;100542.34;8352781;28;20033;-53
2022/10/13 16:41:03;;;;;;;26.45;14.75;;;;;;;16.07;100.00;100549.19;8356318;28;20124;-54
2022/10/13 16:45:05;;;;;;;25.67;14.30;;;;;;;16.09;100.00;100547.13;8349562;28;20076;-54
2022/10/13 16:49:05;;;;;;;32.38;15.23;;;;;;;16.11;100.00;100550.53;8338974;28;20124;-54
2022/10/13 16:53:06;;;;;;;24.45;14.82;;;;;;;16.10;100.00;100554.28;8349506;28;20048;-53
2022/10/13 16:57:06;;;;;;;33.17;14.48;;;;;;;16.09;100.00;100568.94;8353183;28;20036;-53
2022/10/13 17:01:08;;;;;;;25.88;14.63;;;;;;;16.06;100.00;100561.97;8353150;28;20569;-53
2022/10/13 17:05:09;;;;;;;31.13;16.50;;;;;;;16.03;100.00;100569.63;8353263;28;20120;-51
2022/10/13 17:09:10;;;;;;;25.08;13.15;;;;;;;15.99;100.00;100579.19;8352083;28;20029;-53
2022/10/13 17:13:13;;;;;;;24.15;12.52;;;;;;;15.83;100.00;100595.59;8353722;28;20585;-52
2022/10/13 17:17:13;;;;;;;19.63;12.30;;;;;;;15.63;100.00;100604.13;8359073;28;20746;-51
2022/10/13 17:21:16;;;;;;;30.63;14.20;;;;;;;15.51;100.00;100596.44;8353940;28;20045;-54
2022/10/13 17:25:16;;;;;;;27.17;14.85;;;;;;;15.46;100.00;100598.81;8359431;28;20055;-54
2022/10/13 17:29:17;;;;;;;36.70;16.08;;;;;;;15.42;100.00;100598.31;8352466;28;20025;-52
2022/10/13 17:33:17;;;;;;;32.88;17.23;;;;;;;15.41;100.00;100596.59;8349850;28;20156;-52
2022/10/13 17:37:19;;;;;;;31.58;17.10;;;;;;;15.35;100.00;100608.19;8353438;28;20546;-53
2022/10/13 17:41:19;;;;;;;37.15;17.83;;;;;;;15.34;100.00;100601.00;8352392;28;20360;-53
2022/10/13 17:45:23;;;;;;;38.05;18.00;;;;;;;15.32;100.00;100603.06;8383019;28;20510;-54
2022/10/13 17:49:23;;;;;;;35.55;18.08;;;;;;;15.28;100.00;100600.84;8348129;28;20033;-50
2022/10/13 17:53:25;;;;;;;48.50;25.58;;;;;;;15.26;100.00;100602.88;8359005;28;20048;-54
2022/10/13 17:57:25;;;;;;;44.28;24.33;;;;;;;15.28;100.00;100611.75;8347731;28;20378;-51
2022/10/13 18:01:31;;;;;;;42.47;22.33;;;;;;;15.21;100.00;100619.72;8349919;28;20041;-51
2022/10/13 18:05:33;;;;;;;37.23;21.50;;;;;;;15.16;100.00;100619.34;8342306;28;20041;-50
2022/10/13 18:09:35;;;;;;;38.40;19.95;;;;;;;15.11;100.00;100616.31;8348940;28;20098;-52
2022/10/13 18:13:37;;;;;;;42.97;20.27;;;;;;;15.10;100.00;100619.19;8348783;28;20095;-53
2022/10/13 18:17:38;;;;;;;40.53;21.90;;;;;;;15.12;100.00;100622.59;8351071;28;20710;-52
2022/10/13 18:21:39;;;;;;;35.88;21.15;;;;;;;15.13;100.00;100630.59;8350884;28;20067;-53
2022/10/13 18:25:39;;;;;;;30.40;18.35;;;;;;;15.06;100.00;100617.81;8349738;28;20229;-52
2022/10/13 18:29:41;;;;;;;25.20;14.82;;;;;;;15.05;100.00;100619.69;8351614;28;20115;-52
2022/10/13 18:33:42;;;;;;;25.23;12.88;;;;;;;15.03;100.00;100619.00;8350972;28;20072;-52
2022/10/13 18:37:42;;;;;;;20.58;11.18;;;;;;;15.00;100.00;100624.78;8347112;28;20374;-52
2022/10/13 18:41:43;;;;;;;15.95;9.20;;;;;;;15.00;100.00;100624.78;8343791;28;20060;-51
2022/10/13 18:45:44;;;;;;;13.85;9.15;;;;;;;14.99;100.00;100622.22;8350998;28;20502;-50
2022/10/13 18:49:44;;;;;;;13.98;8.93;;;;;;;14.96;100.00;100626.13;8350486;28;20441;-54